sensor_id;sensor_type;location;lat;lon;timestamp;temperature;humidity
30534;DHT22;17318;52.390;9.754;2023-05-20T00:01:58;16.10;66.40
30534;DHT22;17318;52.390;9.754;2023-05-20T00:04:24;16.10;66.20
30534;DHT22;17318;52.390;9.754;2023-05-20T00:06:50;16.20;66.80
30534;DHT22;17318;52.390;9.754;2023-05-20T00:09:15;16.10;66.20
30534;DHT22;17318;52.390;9.754;2023-05-20T00:11:41;16.00;66.70
30534;DHT22;17318;52.390;9.754;2023-05-20T00:14:07;16.10;66.40
30534;DHT22;17318;52.390;9.754;2023-05-20T00:16:33;16.10;66.60
30534;DHT22;17318;52.390;9.754;2023-05-20T00:18:58;16.00;66.90
30534;DHT22;17318;52.390;9.754;2023-05-20T00:21:24;15.90;66.70
30534;DHT22;17318;52.390;9.754;2023-05-20T00:23:50;15.90;66.70
30534;DHT22;17318;52.390;9.754;2023-05-20T00:26:16;15.90;67.00
30534;DHT22;17318;52.390;9.754;2023-05-20T00:28:41;15.90;66.70
30534;DHT22;17318;52.390;9.754;2023-05-20T00:31:07;15.80;68.50
30534;DHT22;17318;52.390;9.754;2023-05-20T00:33:33;15.80;67.50
30534;DHT22;17318;52.390;9.754;2023-05-20T00:36:00;15.70;67.70
30534;DHT22;17318;52.390;9.754;2023-05-20T00:38:26;15.70;68.10
30534;DHT22;17318;52.390;9.754;2023-05-20T00:40:52;15.70;68.40
30534;DHT22;17318;52.390;9.754;2023-05-20T00:43:17;15.70;68.00
30534;DHT22;17318;52.390;9.754;2023-05-20T00:45:46;15.70;67.80
30534;DHT22;17318;52.390;9.754;2023-05-20T00:48:12;15.50;68.10
30534;DHT22;17318;52.390;9.754;2023-05-20T00:50:38;15.50;68.20
30534;DHT22;17318;52.390;9.754;2023-05-20T00:53:05;15.60;68.10
30534;DHT22;17318;52.390;9.754;2023-05-20T00:55:31;15.60;68.60
30534;DHT22;17318;52.390;9.754;2023-05-20T00:57:57;15.60;68.90
30534;DHT22;17318;52.390;9.754;2023-05-20T01:00:23;15.50;68.60
30534;DHT22;17318;52.390;9.754;2023-05-20T01:02:48;15.60;68.90
30534;DHT22;17318;52.390;9.754;2023-05-20T01:05:14;15.50;68.50
30534;DHT22;17318;52.390;9.754;2023-05-20T01:07:40;15.50;68.20
30534;DHT22;17318;52.390;9.754;2023-05-20T01:10:06;15.50;68.10
30534;DHT22;17318;52.390;9.754;2023-05-20T01:12:41;15.40;68.80
30534;DHT22;17318;52.390;9.754;2023-05-20T01:15:09;15.40;69.20
30534;DHT22;17318;52.390;9.754;2023-05-20T01:17:45;15.30;69.10
30534;DHT22;17318;52.390;9.754;2023-05-20T01:20:12;15.30;70.10
30534;DHT22;17318;52.390;9.754;2023-05-20T01:22:51;15.40;69.90
30534;DHT22;17318;52.390;9.754;2023-05-20T01:25:17;15.30;69.60
30534;DHT22;17318;52.390;9.754;2023-05-20T01:27:43;15.20;70.00
30534;DHT22;17318;52.390;9.754;2023-05-20T01:30:09;15.20;70.60
30534;DHT22;17318;52.390;9.754;2023-05-20T01:32:42;15.20;69.40
30534;DHT22;17318;52.390;9.754;2023-05-20T01:35:13;15.20;70.10
30534;DHT22;17318;52.390;9.754;2023-05-20T01:37:40;15.00;70.30
30534;DHT22;17318;52.390;9.754;2023-05-20T01:40:11;15.00;70.10
30534;DHT22;17318;52.390;9.754;2023-05-20T01:42:39;15.00;70.20
30534;DHT22;17318;52.390;9.754;2023-05-20T01:45:06;14.90;70.50
30534;DHT22;17318;52.390;9.754;2023-05-20T01:47:32;14.90;70.90
30534;DHT22;17318;52.390;9.754;2023-05-20T01:49:57;14.90;70.10
30534;DHT22;17318;52.390;9.754;2023-05-20T01:52:23;14.90;70.00
30534;DHT22;17318;52.390;9.754;2023-05-20T01:54:48;14.90;70.40
30534;DHT22;17318;52.390;9.754;2023-05-20T01:57:21;14.80;70.50
30534;DHT22;17318;52.390;9.754;2023-05-20T01:59:47;14.80;70.50
30534;DHT22;17318;52.390;9.754;2023-05-20T02:02:13;14.70;70.40
30534;DHT22;17318;52.390;9.754;2023-05-20T02:04:39;14.70;70.60
30534;DHT22;17318;52.390;9.754;2023-05-20T02:07:06;14.70;70.70
30534;DHT22;17318;52.390;9.754;2023-05-20T02:09:32;14.70;70.80
30534;DHT22;17318;52.390;9.754;2023-05-20T02:11:58;14.70;71.10
30534;DHT22;17318;52.390;9.754;2023-05-20T02:14:23;14.50;71.30
30534;DHT22;17318;52.390;9.754;2023-05-20T02:16:49;14.50;71.10
30534;DHT22;17318;52.390;9.754;2023-05-20T02:19:15;14.50;70.80
30534;DHT22;17318;52.390;9.754;2023-05-20T02:21:48;14.40;71.50
30534;DHT22;17318;52.390;9.754;2023-05-20T02:24:13;14.40;71.50
30534;DHT22;17318;52.390;9.754;2023-05-20T02:26:39;14.30;72.00
30534;DHT22;17318;52.390;9.754;2023-05-20T02:29:05;14.30;72.10
30534;DHT22;17318;52.390;9.754;2023-05-20T02:31:31;14.20;72.50
30534;DHT22;17318;52.390;9.754;2023-05-20T02:33:56;14.20;72.30
30534;DHT22;17318;52.390;9.754;2023-05-20T02:36:22;14.30;72.50
30534;DHT22;17318;52.390;9.754;2023-05-20T02:38:48;14.20;71.90
30534;DHT22;17318;52.390;9.754;2023-05-20T02:41:14;14.30;72.80
30534;DHT22;17318;52.390;9.754;2023-05-20T02:43:39;14.30;72.80
30534;DHT22;17318;52.390;9.754;2023-05-20T02:46:05;14.30;73.30
30534;DHT22;17318;52.390;9.754;2023-05-20T02:48:31;14.30;72.90
30534;DHT22;17318;52.390;9.754;2023-05-20T02:50:58;14.20;73.10
30534;DHT22;17318;52.390;9.754;2023-05-20T02:53:24;14.20;73.00
30534;DHT22;17318;52.390;9.754;2023-05-20T02:55:50;14.20;73.50
30534;DHT22;17318;52.390;9.754;2023-05-20T02:58:16;14.20;73.50
30534;DHT22;17318;52.390;9.754;2023-05-20T03:00:42;14.20;74.10
30534;DHT22;17318;52.390;9.754;2023-05-20T03:03:08;14.20;73.50
30534;DHT22;17318;52.390;9.754;2023-05-20T03:05:35;14.30;73.70
30534;DHT22;17318;52.390;9.754;2023-05-20T03:08:07;14.30;73.90
30534;DHT22;17318;52.390;9.754;2023-05-20T03:10:35;14.20;74.00
30534;DHT22;17318;52.390;9.754;2023-05-20T03:13:00;14.10;74.60
30534;DHT22;17318;52.390;9.754;2023-05-20T03:15:26;14.20;74.50
30534;DHT22;17318;52.390;9.754;2023-05-20T03:17:52;14.10;74.80
30534;DHT22;17318;52.390;9.754;2023-05-20T03:20:18;14.20;74.80
30534;DHT22;17318;52.390;9.754;2023-05-20T03:22:44;14.10;74.20
30534;DHT22;17318;52.390;9.754;2023-05-20T03:25:10;14.10;74.70
30534;DHT22;17318;52.390;9.754;2023-05-20T03:27:36;14.10;74.60
30534;DHT22;17318;52.390;9.754;2023-05-20T03:30:02;14.20;75.20
30534;DHT22;17318;52.390;9.754;2023-05-20T03:32:29;14.10;75.60
30534;DHT22;17318;52.390;9.754;2023-05-20T03:34:55;14.20;75.10
30534;DHT22;17318;52.390;9.754;2023-05-20T03:37:22;14.10;76.00
30534;DHT22;17318;52.390;9.754;2023-05-20T03:39:48;14.20;76.10
30534;DHT22;17318;52.390;9.754;2023-05-20T03:42:13;14.00;77.10
30534;DHT22;17318;52.390;9.754;2023-05-20T03:44:39;13.90;77.90
30534;DHT22;17318;52.390;9.754;2023-05-20T03:47:05;13.90;78.30
30534;DHT22;17318;52.390;9.754;2023-05-20T03:49:31;14.00;78.10
30534;DHT22;17318;52.390;9.754;2023-05-20T03:51:56;14.00;77.50
30534;DHT22;17318;52.390;9.754;2023-05-20T03:54:22;14.10;76.60
30534;DHT22;17318;52.390;9.754;2023-05-20T03:56:48;14.10;77.00
30534;DHT22;17318;52.390;9.754;2023-05-20T03:59:14;14.10;76.60
30534;DHT22;17318;52.390;9.754;2023-05-20T04:01:39;14.20;76.70
30534;DHT22;17318;52.390;9.754;2023-05-20T04:04:05;14.30;76.60
30534;DHT22;17318;52.390;9.754;2023-05-20T04:06:31;14.30;76.20
30534;DHT22;17318;52.390;9.754;2023-05-20T04:08:57;14.30;76.20
30534;DHT22;17318;52.390;9.754;2023-05-20T04:11:23;14.30;75.90
30534;DHT22;17318;52.390;9.754;2023-05-20T04:13:48;14.30;76.20
30534;DHT22;17318;52.390;9.754;2023-05-20T04:16:14;14.40;75.80
30534;DHT22;17318;52.390;9.754;2023-05-20T04:18:40;14.40;76.20
30534;DHT22;17318;52.390;9.754;2023-05-20T04:21:05;14.40;75.60
30534;DHT22;17318;52.390;9.754;2023-05-20T04:23:32;14.40;75.70
30534;DHT22;17318;52.390;9.754;2023-05-20T04:25:58;14.40;75.80
30534;DHT22;17318;52.390;9.754;2023-05-20T04:28:27;14.50;75.80
30534;DHT22;17318;52.390;9.754;2023-05-20T04:31:02;14.50;75.80
30534;DHT22;17318;52.390;9.754;2023-05-20T04:33:31;14.50;75.60
30534;DHT22;17318;52.390;9.754;2023-05-20T04:35:58;14.50;75.70
30534;DHT22;17318;52.390;9.754;2023-05-20T04:38:24;14.60;76.10
30534;DHT22;17318;52.390;9.754;2023-05-20T04:40:59;14.50;76.10
30534;DHT22;17318;52.390;9.754;2023-05-20T04:43:25;14.50;76.20
30534;DHT22;17318;52.390;9.754;2023-05-20T04:45:55;14.50;76.80
30534;DHT22;17318;52.390;9.754;2023-05-20T04:48:21;14.50;77.10
30534;DHT22;17318;52.390;9.754;2023-05-20T04:50:47;14.50;77.30
30534;DHT22;17318;52.390;9.754;2023-05-20T04:53:17;14.40;77.70
30534;DHT22;17318;52.390;9.754;2023-05-20T04:55:44;14.40;77.90
30534;DHT22;17318;52.390;9.754;2023-05-20T04:58:09;14.50;77.90
30534;DHT22;17318;52.390;9.754;2023-05-20T05:00:42;14.50;77.70
30534;DHT22;17318;52.390;9.754;2023-05-20T05:03:08;14.60;77.50
30534;DHT22;17318;52.390;9.754;2023-05-20T05:05:38;14.60;77.70
30534;DHT22;17318;52.390;9.754;2023-05-20T05:08:05;14.70;77.70
30534;DHT22;17318;52.390;9.754;2023-05-20T05:10:31;14.70;77.60
30534;DHT22;17318;52.390;9.754;2023-05-20T05:12:57;14.80;77.70
30534;DHT22;17318;52.390;9.754;2023-05-20T05:15:23;14.80;77.60
30534;DHT22;17318;52.390;9.754;2023-05-20T05:17:49;14.80;77.70
30534;DHT22;17318;52.390;9.754;2023-05-20T05:20:15;14.80;77.80
30534;DHT22;17318;52.390;9.754;2023-05-20T05:22:42;14.90;77.60
30534;DHT22;17318;52.390;9.754;2023-05-20T05:25:08;14.90;78.00
30534;DHT22;17318;52.390;9.754;2023-05-20T05:27:34;14.90;78.20
30534;DHT22;17318;52.390;9.754;2023-05-20T05:30:01;15.00;77.90
30534;DHT22;17318;52.390;9.754;2023-05-20T05:32:27;15.00;77.90
30534;DHT22;17318;52.390;9.754;2023-05-20T05:34:52;15.00;78.30
30534;DHT22;17318;52.390;9.754;2023-05-20T05:37:18;15.10;78.30
30534;DHT22;17318;52.390;9.754;2023-05-20T05:39:43;15.10;77.90
30534;DHT22;17318;52.390;9.754;2023-05-20T05:42:09;15.20;78.40
30534;DHT22;17318;52.390;9.754;2023-05-20T05:44:35;15.10;78.60
30534;DHT22;17318;52.390;9.754;2023-05-20T05:47:00;15.10;78.60
30534;DHT22;17318;52.390;9.754;2023-05-20T05:49:26;15.20;78.80
30534;DHT22;17318;52.390;9.754;2023-05-20T05:51:52;15.30;78.90
30534;DHT22;17318;52.390;9.754;2023-05-20T05:54:17;15.20;78.70
30534;DHT22;17318;52.390;9.754;2023-05-20T05:56:45;15.40;79.10
30534;DHT22;17318;52.390;9.754;2023-05-20T05:59:11;15.40;78.80
30534;DHT22;17318;52.390;9.754;2023-05-20T06:01:37;15.40;79.10
30534;DHT22;17318;52.390;9.754;2023-05-20T06:04:03;15.40;79.50
30534;DHT22;17318;52.390;9.754;2023-05-20T06:06:30;15.50;79.60
30534;DHT22;17318;52.390;9.754;2023-05-20T06:08:56;15.50;79.80
30534;DHT22;17318;52.390;9.754;2023-05-20T06:11:22;15.50;80.10
30534;DHT22;17318;52.390;9.754;2023-05-20T06:13:49;15.50;80.40
30534;DHT22;17318;52.390;9.754;2023-05-20T06:16:14;15.60;80.60
30534;DHT22;17318;52.390;9.754;2023-05-20T06:18:41;15.60;80.30
30534;DHT22;17318;52.390;9.754;2023-05-20T06:21:07;15.70;80.40
30534;DHT22;17318;52.390;9.754;2023-05-20T06:23:32;15.70;80.40
30534;DHT22;17318;52.390;9.754;2023-05-20T06:25:58;15.80;80.40
30534;DHT22;17318;52.390;9.754;2023-05-20T06:28:25;15.80;80.40
30534;DHT22;17318;52.390;9.754;2023-05-20T06:30:51;15.90;80.30
30534;DHT22;17318;52.390;9.754;2023-05-20T06:33:19;16.00;80.40
30534;DHT22;17318;52.390;9.754;2023-05-20T06:35:45;16.10;80.30
30534;DHT22;17318;52.390;9.754;2023-05-20T06:38:10;16.20;80.60
30534;DHT22;17318;52.390;9.754;2023-05-20T06:40:36;16.20;80.50
30534;DHT22;17318;52.390;9.754;2023-05-20T06:43:02;16.30;80.50
30534;DHT22;17318;52.390;9.754;2023-05-20T06:45:27;16.40;80.40
30534;DHT22;17318;52.390;9.754;2023-05-20T06:47:53;16.40;80.70
30534;DHT22;17318;52.390;9.754;2023-05-20T06:50:19;16.50;80.90
30534;DHT22;17318;52.390;9.754;2023-05-20T06:52:45;16.60;81.10
30534;DHT22;17318;52.390;9.754;2023-05-20T06:55:10;16.70;81.20
30534;DHT22;17318;52.390;9.754;2023-05-20T06:57:37;16.70;81.20
30534;DHT22;17318;52.390;9.754;2023-05-20T07:00:03;16.70;81.00
30534;DHT22;17318;52.390;9.754;2023-05-20T07:02:31;16.80;80.90
30534;DHT22;17318;52.390;9.754;2023-05-20T07:04:57;16.90;80.60
30534;DHT22;17318;52.390;9.754;2023-05-20T07:07:23;17.00;80.60
30534;DHT22;17318;52.390;9.754;2023-05-20T07:09:49;17.10;80.30
30534;DHT22;17318;52.390;9.754;2023-05-20T07:12:14;17.30;79.80
30534;DHT22;17318;52.390;9.754;2023-05-20T07:14:41;17.50;79.40
30534;DHT22;17318;52.390;9.754;2023-05-20T07:17:07;17.60;79.20
30534;DHT22;17318;52.390;9.754;2023-05-20T07:19:32;17.70;79.00
30534;DHT22;17318;52.390;9.754;2023-05-20T07:21:58;17.80;78.40
30534;DHT22;17318;52.390;9.754;2023-05-20T07:24:24;17.90;78.10
30534;DHT22;17318;52.390;9.754;2023-05-20T07:26:50;18.00;78.20
30534;DHT22;17318;52.390;9.754;2023-05-20T07:29:16;18.10;77.50
30534;DHT22;17318;52.390;9.754;2023-05-20T07:31:42;18.20;76.40
30534;DHT22;17318;52.390;9.754;2023-05-20T07:34:07;18.20;76.50
30534;DHT22;17318;52.390;9.754;2023-05-20T07:36:33;18.20;76.40
30534;DHT22;17318;52.390;9.754;2023-05-20T07:38:59;18.30;76.30
30534;DHT22;17318;52.390;9.754;2023-05-20T07:41:25;18.30;76.90
30534;DHT22;17318;52.390;9.754;2023-05-20T07:43:51;18.40;76.20
30534;DHT22;17318;52.390;9.754;2023-05-20T07:46:17;18.50;76.00
30534;DHT22;17318;52.390;9.754;2023-05-20T07:48:42;18.30;75.70
30534;DHT22;17318;52.390;9.754;2023-05-20T07:51:09;18.40;75.70
30534;DHT22;17318;52.390;9.754;2023-05-20T07:53:36;18.40;75.20
30534;DHT22;17318;52.390;9.754;2023-05-20T07:56:02;18.50;75.60
30534;DHT22;17318;52.390;9.754;2023-05-20T07:58:28;18.30;75.60
30534;DHT22;17318;52.390;9.754;2023-05-20T08:00:54;18.40;75.50
30534;DHT22;17318;52.390;9.754;2023-05-20T08:03:19;18.50;75.90
30534;DHT22;17318;52.390;9.754;2023-05-20T08:05:46;18.70;75.00
30534;DHT22;17318;52.390;9.754;2023-05-20T08:08:12;18.90;75.00
30534;DHT22;17318;52.390;9.754;2023-05-20T08:10:38;19.10;74.70
30534;DHT22;17318;52.390;9.754;2023-05-20T08:13:03;19.20;74.50
30534;DHT22;17318;52.390;9.754;2023-05-20T08:15:29;19.50;74.20
30534;DHT22;17318;52.390;9.754;2023-05-20T08:17:55;19.80;73.80
30534;DHT22;17318;52.390;9.754;2023-05-20T08:20:21;20.00;73.20
30534;DHT22;17318;52.390;9.754;2023-05-20T08:22:46;20.30;73.40
30534;DHT22;17318;52.390;9.754;2023-05-20T08:25:12;20.60;72.60
30534;DHT22;17318;52.390;9.754;2023-05-20T08:27:39;20.70;71.80
30534;DHT22;17318;52.390;9.754;2023-05-20T08:30:05;21.10;71.60
30534;DHT22;17318;52.390;9.754;2023-05-20T08:32:34;21.70;70.90
30534;DHT22;17318;52.390;9.754;2023-05-20T08:35:00;21.90;68.90
30534;DHT22;17318;52.390;9.754;2023-05-20T08:37:27;21.80;68.30
30534;DHT22;17318;52.390;9.754;2023-05-20T08:39:53;21.50;68.20
30534;DHT22;17318;52.390;9.754;2023-05-20T08:42:22;21.20;68.50
30534;DHT22;17318;52.390;9.754;2023-05-20T08:44:51;21.00;68.70
30534;DHT22;17318;52.390;9.754;2023-05-20T08:47:21;20.80;69.20
30534;DHT22;17318;52.390;9.754;2023-05-20T08:49:47;21.10;70.00
30534;DHT22;17318;52.390;9.754;2023-05-20T08:52:16;21.30;69.70
30534;DHT22;17318;52.390;9.754;2023-05-20T08:54:45;21.60;69.00
30534;DHT22;17318;52.390;9.754;2023-05-20T08:57:11;21.80;68.40
30534;DHT22;17318;52.390;9.754;2023-05-20T08:59:42;21.70;67.70
30534;DHT22;17318;52.390;9.754;2023-05-20T09:02:08;21.30;68.20
30534;DHT22;17318;52.390;9.754;2023-05-20T09:04:36;21.20;68.40
30534;DHT22;17318;52.390;9.754;2023-05-20T09:07:02;21.00;68.70
30534;DHT22;17318;52.390;9.754;2023-05-20T09:09:28;20.90;69.40
30534;DHT22;17318;52.390;9.754;2023-05-20T09:11:54;20.80;69.20
30534;DHT22;17318;52.390;9.754;2023-05-20T09:14:20;20.70;69.30
30534;DHT22;17318;52.390;9.754;2023-05-20T09:16:46;20.40;69.80
30534;DHT22;17318;52.390;9.754;2023-05-20T09:19:12;20.10;70.10
30534;DHT22;17318;52.390;9.754;2023-05-20T09:21:40;19.90;70.90
30534;DHT22;17318;52.390;9.754;2023-05-20T09:24:06;20.20;71.50
30534;DHT22;17318;52.390;9.754;2023-05-20T09:26:32;20.40;70.80
30534;DHT22;17318;52.390;9.754;2023-05-20T09:28:58;20.30;70.40
30534;DHT22;17318;52.390;9.754;2023-05-20T09:31:29;20.20;70.70
30534;DHT22;17318;52.390;9.754;2023-05-20T09:33:55;20.10;70.80
30534;DHT22;17318;52.390;9.754;2023-05-20T09:36:22;19.70;71.50
30534;DHT22;17318;52.390;9.754;2023-05-20T09:38:51;19.50;72.00
30534;DHT22;17318;52.390;9.754;2023-05-20T09:41:19;19.30;72.60
30534;DHT22;17318;52.390;9.754;2023-05-20T09:43:49;18.90;73.30
30534;DHT22;17318;52.390;9.754;2023-05-20T09:46:16;18.90;73.50
30534;DHT22;17318;52.390;9.754;2023-05-20T09:48:42;18.90;73.70
30534;DHT22;17318;52.390;9.754;2023-05-20T09:51:09;18.90;74.00
30534;DHT22;17318;52.390;9.754;2023-05-20T09:53:36;18.90;73.90
30534;DHT22;17318;52.390;9.754;2023-05-20T09:56:02;18.90;74.10
30534;DHT22;17318;52.390;9.754;2023-05-20T09:58:28;18.90;74.50
30534;DHT22;17318;52.390;9.754;2023-05-20T10:00:54;18.90;74.70
30534;DHT22;17318;52.390;9.754;2023-05-20T10:03:23;18.70;75.10
30534;DHT22;17318;52.390;9.754;2023-05-20T10:11:39;18.90;74.60
30534;DHT22;17318;52.390;9.754;2023-05-20T10:19:49;18.80;74.20
30534;DHT22;17318;52.390;9.754;2023-05-20T10:22:29;18.80;74.30
30534;DHT22;17318;52.390;9.754;2023-05-20T10:25:03;18.70;75.00
30534;DHT22;17318;52.390;9.754;2023-05-20T10:27:44;18.60;75.30
30534;DHT22;17318;52.390;9.754;2023-05-20T10:30:21;18.50;75.50
30534;DHT22;17318;52.390;9.754;2023-05-20T10:33:01;18.60;75.60
30534;DHT22;17318;52.390;9.754;2023-05-20T10:35:27;18.60;75.60
30534;DHT22;17318;52.390;9.754;2023-05-20T10:37:54;18.60;75.90
30534;DHT22;17318;52.390;9.754;2023-05-20T10:40:30;18.60;76.40
30534;DHT22;17318;52.390;9.754;2023-05-20T10:42:56;18.60;76.30
30534;DHT22;17318;52.390;9.754;2023-05-20T10:45:33;18.70;76.20
30534;DHT22;17318;52.390;9.754;2023-05-20T10:48:01;18.70;76.10
30534;DHT22;17318;52.390;9.754;2023-05-20T10:50:34;18.70;76.30
30534;DHT22;17318;52.390;9.754;2023-05-20T10:53:10;18.60;76.40
30534;DHT22;17318;52.390;9.754;2023-05-20T10:55:37;18.60;76.50
30534;DHT22;17318;52.390;9.754;2023-05-20T10:58:04;18.60;76.60
30534;DHT22;17318;52.390;9.754;2023-05-20T11:00:31;18.70;76.50
30534;DHT22;17318;52.390;9.754;2023-05-20T11:02:57;18.80;76.50
30534;DHT22;17318;52.390;9.754;2023-05-20T11:05:23;18.90;76.50
30534;DHT22;17318;52.390;9.754;2023-05-20T11:08:02;18.90;76.50
30534;DHT22;17318;52.390;9.754;2023-05-20T11:10:29;18.80;76.60
30534;DHT22;17318;52.390;9.754;2023-05-20T11:12:57;18.80;76.60
30534;DHT22;17318;52.390;9.754;2023-05-20T11:15:23;18.70;76.80
30534;DHT22;17318;52.390;9.754;2023-05-20T11:18:00;18.70;76.60
30534;DHT22;17318;52.390;9.754;2023-05-20T11:20:26;18.70;76.90
30534;DHT22;17318;52.390;9.754;2023-05-20T11:22:55;18.70;76.80
30534;DHT22;17318;52.390;9.754;2023-05-20T11:25:21;18.70;77.10
30534;DHT22;17318;52.390;9.754;2023-05-20T11:27:50;18.70;77.40
30534;DHT22;17318;52.390;9.754;2023-05-20T11:30:19;18.70;77.60
30534;DHT22;17318;52.390;9.754;2023-05-20T11:32:59;18.70;77.80
30534;DHT22;17318;52.390;9.754;2023-05-20T11:35:26;18.70;77.70
30534;DHT22;17318;52.390;9.754;2023-05-20T11:38:04;18.80;77.70
30534;DHT22;17318;52.390;9.754;2023-05-20T11:40:31;18.70;77.90
30534;DHT22;17318;52.390;9.754;2023-05-20T11:42:59;18.70;78.20
30534;DHT22;17318;52.390;9.754;2023-05-20T11:45:25;18.80;78.20
30534;DHT22;17318;52.390;9.754;2023-05-20T11:48:04;18.90;78.10
30534;DHT22;17318;52.390;9.754;2023-05-20T11:50:38;19.00;77.80
30534;DHT22;17318;52.390;9.754;2023-05-20T11:53:10;19.20;77.70
30534;DHT22;17318;52.390;9.754;2023-05-20T11:55:47;19.30;77.30
30534;DHT22;17318;52.390;9.754;2023-05-20T11:58:18;19.40;77.00
30534;DHT22;17318;52.390;9.754;2023-05-20T12:00:44;19.50;77.10
30534;DHT22;17318;52.390;9.754;2023-05-20T12:03:10;19.40;76.90
30534;DHT22;17318;52.390;9.754;2023-05-20T12:05:36;19.40;76.80
30534;DHT22;17318;52.390;9.754;2023-05-20T12:08:02;19.30;76.80
30534;DHT22;17318;52.390;9.754;2023-05-20T12:10:28;19.30;77.10
30534;DHT22;17318;52.390;9.754;2023-05-20T12:12:54;19.30;77.20
30534;DHT22;17318;52.390;9.754;2023-05-20T12:15:20;19.30;77.20
30534;DHT22;17318;52.390;9.754;2023-05-20T12:17:47;19.40;77.50
30534;DHT22;17318;52.390;9.754;2023-05-20T12:20:18;19.60;77.40
30534;DHT22;17318;52.390;9.754;2023-05-20T12:22:44;19.60;76.90
30534;DHT22;17318;52.390;9.754;2023-05-20T12:25:11;19.60;76.90
30534;DHT22;17318;52.390;9.754;2023-05-20T12:27:38;19.60;76.90
30534;DHT22;17318;52.390;9.754;2023-05-20T12:30:04;19.40;77.70
30534;DHT22;17318;52.390;9.754;2023-05-20T12:32:30;19.40;77.30
30534;DHT22;17318;52.390;9.754;2023-05-20T12:34:55;19.50;77.30
30534;DHT22;17318;52.390;9.754;2023-05-20T12:37:21;19.60;77.00
30534;DHT22;17318;52.390;9.754;2023-05-20T12:39:47;19.60;77.10
30534;DHT22;17318;52.390;9.754;2023-05-20T12:42:12;19.60;77.00
30534;DHT22;17318;52.390;9.754;2023-05-20T12:44:38;19.50;76.90
30534;DHT22;17318;52.390;9.754;2023-05-20T12:47:04;19.50;76.90
30534;DHT22;17318;52.390;9.754;2023-05-20T12:49:29;19.60;77.20
30534;DHT22;17318;52.390;9.754;2023-05-20T12:51:55;19.50;77.10
30534;DHT22;17318;52.390;9.754;2023-05-20T12:54:20;19.50;77.40
30534;DHT22;17318;52.390;9.754;2023-05-20T12:56:46;19.40;77.50
30534;DHT22;17318;52.390;9.754;2023-05-20T12:59:13;19.40;77.90
30534;DHT22;17318;52.390;9.754;2023-05-20T13:01:39;19.50;78.00
30534;DHT22;17318;52.390;9.754;2023-05-20T13:04:05;19.60;77.80
30534;DHT22;17318;52.390;9.754;2023-05-20T13:06:32;19.70;77.70
30534;DHT22;17318;52.390;9.754;2023-05-20T13:08:58;19.70;77.80
30534;DHT22;17318;52.390;9.754;2023-05-20T13:11:24;19.70;77.70
30534;DHT22;17318;52.390;9.754;2023-05-20T13:13:49;19.60;77.60
30534;DHT22;17318;52.390;9.754;2023-05-20T13:16:15;19.60;77.60
30534;DHT22;17318;52.390;9.754;2023-05-20T13:18:42;19.70;78.00
30534;DHT22;17318;52.390;9.754;2023-05-20T13:21:08;19.90;77.70
30534;DHT22;17318;52.390;9.754;2023-05-20T13:23:34;20.00;77.20
30534;DHT22;17318;52.390;9.754;2023-05-20T13:26:00;20.00;76.70
30534;DHT22;17318;52.390;9.754;2023-05-20T13:28:25;20.10;77.00
30534;DHT22;17318;52.390;9.754;2023-05-20T13:30:51;20.20;77.10
30534;DHT22;17318;52.390;9.754;2023-05-20T13:33:17;20.20;76.70
30534;DHT22;17318;52.390;9.754;2023-05-20T13:35:43;20.10;76.50
30534;DHT22;17318;52.390;9.754;2023-05-20T13:38:08;20.10;77.10
30534;DHT22;17318;52.390;9.754;2023-05-20T13:40:34;20.10;77.00
30534;DHT22;17318;52.390;9.754;2023-05-20T13:43:00;20.20;76.90
30534;DHT22;17318;52.390;9.754;2023-05-20T13:45:25;20.10;76.70
30534;DHT22;17318;52.390;9.754;2023-05-20T13:47:51;20.00;77.00
30534;DHT22;17318;52.390;9.754;2023-05-20T13:50:18;20.00;77.40
30534;DHT22;17318;52.390;9.754;2023-05-20T13:52:44;19.90;76.80
30534;DHT22;17318;52.390;9.754;2023-05-20T13:55:10;20.00;77.20
30534;DHT22;17318;52.390;9.754;2023-05-20T13:57:35;20.00;77.10
30534;DHT22;17318;52.390;9.754;2023-05-20T14:00:01;20.00;77.00
30534;DHT22;17318;52.390;9.754;2023-05-20T14:02:27;20.00;77.00
30534;DHT22;17318;52.390;9.754;2023-05-20T14:04:53;20.00;77.00
30534;DHT22;17318;52.390;9.754;2023-05-20T14:07:18;19.80;77.10
30534;DHT22;17318;52.390;9.754;2023-05-20T14:09:44;19.80;77.40
30534;DHT22;17318;52.390;9.754;2023-05-20T14:12:10;19.70;77.80
30534;DHT22;17318;52.390;9.754;2023-05-20T14:14:35;19.60;78.10
30534;DHT22;17318;52.390;9.754;2023-05-20T14:17:01;19.60;78.10
30534;DHT22;17318;52.390;9.754;2023-05-20T14:19:27;19.70;78.80
30534;DHT22;17318;52.390;9.754;2023-05-20T14:21:52;19.70;78.50
30534;DHT22;17318;52.390;9.754;2023-05-20T14:24:18;19.70;78.20
30534;DHT22;17318;52.390;9.754;2023-05-20T14:26:43;19.60;78.20
30534;DHT22;17318;52.390;9.754;2023-05-20T14:29:09;19.70;78.20
30534;DHT22;17318;52.390;9.754;2023-05-20T14:31:35;19.80;78.00
30534;DHT22;17318;52.390;9.754;2023-05-20T14:34:02;19.80;78.20
30534;DHT22;17318;52.390;9.754;2023-05-20T14:36:28;19.60;78.40
30534;DHT22;17318;52.390;9.754;2023-05-20T14:38:54;19.60;78.40
30534;DHT22;17318;52.390;9.754;2023-05-20T14:41:20;19.60;78.30
30534;DHT22;17318;52.390;9.754;2023-05-20T14:43:47;19.60;78.40
30534;DHT22;17318;52.390;9.754;2023-05-20T14:46:13;19.60;78.60
30534;DHT22;17318;52.390;9.754;2023-05-20T14:48:38;19.70;78.50
30534;DHT22;17318;52.390;9.754;2023-05-20T14:51:04;19.60;78.80
30534;DHT22;17318;52.390;9.754;2023-05-20T14:53:30;19.50;78.90
30534;DHT22;17318;52.390;9.754;2023-05-20T14:55:55;19.40;79.10
30534;DHT22;17318;52.390;9.754;2023-05-20T14:58:21;19.40;79.30
30534;DHT22;17318;52.390;9.754;2023-05-20T15:00:47;19.40;80.20
30534;DHT22;17318;52.390;9.754;2023-05-20T15:03:12;19.30;79.70
30534;DHT22;17318;52.390;9.754;2023-05-20T15:05:38;19.30;79.80
30534;DHT22;17318;52.390;9.754;2023-05-20T15:08:04;19.30;79.80
30534;DHT22;17318;52.390;9.754;2023-05-20T15:10:29;19.40;80.10
30534;DHT22;17318;52.390;9.754;2023-05-20T15:12:55;19.30;80.70
30534;DHT22;17318;52.390;9.754;2023-05-20T15:15:21;19.30;80.30
30534;DHT22;17318;52.390;9.754;2023-05-20T15:17:47;19.30;80.30
30534;DHT22;17318;52.390;9.754;2023-05-20T15:20:12;19.30;80.30
30534;DHT22;17318;52.390;9.754;2023-05-20T15:22:38;19.30;80.40
30534;DHT22;17318;52.390;9.754;2023-05-20T15:25:06;19.30;80.40
30534;DHT22;17318;52.390;9.754;2023-05-20T15:27:31;19.30;80.40
30534;DHT22;17318;52.390;9.754;2023-05-20T15:29:57;19.30;80.70
30534;DHT22;17318;52.390;9.754;2023-05-20T15:32:23;19.30;80.40
30534;DHT22;17318;52.390;9.754;2023-05-20T15:34:48;19.30;81.30
30534;DHT22;17318;52.390;9.754;2023-05-20T15:37:14;19.30;81.50
30534;DHT22;17318;52.390;9.754;2023-05-20T15:39:40;19.30;81.70